Terminal Aerodrome Forecast
Issued by NWS Sterling, VA

Home | Current Version | Previous Version | Text Only | Print | Product List | Glossary On
Versions: 1 2 3 4 5 6 7 8 9 10 11 12 13
000
FTUS41 KLWX 231700 RRA
TAFCHO
TAF
KCHO 231745Z 2318/2418 33013G23KT P6SM SKC
     FM232300 33010KT P6SM SKC
     FM240500 32005KT P6SM FEW200=

USA.gov is the U.S. government's official web portal to all federal, state and local government web resources and services.